Terminal Aerodrome Forecast
Issued by NWS

Home | Current Version | Previous Version | Text Only | Print | Product List | Glossary On
Versions: 1 2 3 4 5 6 7 8 9 10 11 12 13
000
FTAK31 PAJN 142300
TAFAKT
TAF
PAKT 142328Z 1500/1524 30010KT P6SM SKC
     FM150400 VRB05KT P6SM SKC
     FM150900 VRB04KT P6SM VCFG FEW003 SCT150
      TEMPO 1514/1518 3SM BCFG SCT005
     FM151900 32008KT P6SM SCT100
      AMD LTD TO CLD VIS AND WIND 1506/1515=

USA.gov is the U.S. government's official web portal to all federal, state and local government web resources and services.